sensor_id;sensor_type;location;lat;lon;timestamp;temperature;humidity
22442;DHT22;11388;54.456;9.752;2023-04-23T00:00:03;16.30;99.90
22442;DHT22;11388;54.456;9.752;2023-04-23T00:02:30;16.30;99.90
22442;DHT22;11388;54.456;9.752;2023-04-23T00:05:02;16.30;99.90
22442;DHT22;11388;54.456;9.752;2023-04-23T00:07:32;16.30;99.90
22442;DHT22;11388;54.456;9.752;2023-04-23T00:09:59;16.30;99.90
22442;DHT22;11388;54.456;9.752;2023-04-23T00:12:26;16.30;99.90
22442;DHT22;11388;54.456;9.752;2023-04-23T00:14:52;16.30;99.90
22442;DHT22;11388;54.456;9.752;2023-04-23T00:17:18;16.30;99.90
22442;DHT22;11388;54.456;9.752;2023-04-23T00:19:44;16.30;99.90
22442;DHT22;11388;54.456;9.752;2023-04-23T00:22:11;16.20;99.90
22442;DHT22;11388;54.456;9.752;2023-04-23T00:24:41;16.10;99.90
22442;DHT22;11388;54.456;9.752;2023-04-23T00:27:07;15.90;99.90
22442;DHT22;11388;54.456;9.752;2023-04-23T00:29:33;15.90;99.90
22442;DHT22;11388;54.456;9.752;2023-04-23T00:31:59;15.90;99.90
22442;DHT22;11388;54.456;9.752;2023-04-23T00:34:25;15.90;99.90
22442;DHT22;11388;54.456;9.752;2023-04-23T00:36:51;15.80;99.90
22442;DHT22;11388;54.456;9.752;2023-04-23T00:39:16;15.80;99.90
22442;DHT22;11388;54.456;9.752;2023-04-23T00:41:42;15.50;99.90
22442;DHT22;11388;54.456;9.752;2023-04-23T00:44:09;15.30;99.90
22442;DHT22;11388;54.456;9.752;2023-04-23T00:46:35;15.20;99.90
22442;DHT22;11388;54.456;9.752;2023-04-23T00:49:01;15.10;99.90
22442;DHT22;11388;54.456;9.752;2023-04-23T00:51:28;14.90;99.90
22442;DHT22;11388;54.456;9.752;2023-04-23T00:53:54;14.90;99.90
22442;DHT22;11388;54.456;9.752;2023-04-23T00:56:21;14.80;99.90
22442;DHT22;11388;54.456;9.752;2023-04-23T00:58:48;14.60;99.90
22442;DHT22;11388;54.456;9.752;2023-04-23T01:01:15;14.60;99.90
22442;DHT22;11388;54.456;9.752;2023-04-23T01:03:45;14.50;99.90
22442;DHT22;11388;54.456;9.752;2023-04-23T01:06:12;14.60;99.90
22442;DHT22;11388;54.456;9.752;2023-04-23T01:08:38;14.40;99.90
22442;DHT22;11388;54.456;9.752;2023-04-23T01:11:05;14.20;99.90
22442;DHT22;11388;54.456;9.752;2023-04-23T01:13:32;14.20;99.90
22442;DHT22;11388;54.456;9.752;2023-04-23T01:15:58;14.20;99.90
22442;DHT22;11388;54.456;9.752;2023-04-23T01:18:24;14.10;99.90
22442;DHT22;11388;54.456;9.752;2023-04-23T01:20:51;14.00;99.90
22442;DHT22;11388;54.456;9.752;2023-04-23T01:23:17;14.10;99.90
22442;DHT22;11388;54.456;9.752;2023-04-23T01:25:43;14.10;99.90
22442;DHT22;11388;54.456;9.752;2023-04-23T01:28:08;13.90;99.90
22442;DHT22;11388;54.456;9.752;2023-04-23T01:30:35;14.10;99.90
22442;DHT22;11388;54.456;9.752;2023-04-23T01:33:02;13.90;99.90
22442;DHT22;11388;54.456;9.752;2023-04-23T01:35:29;13.90;99.90
22442;DHT22;11388;54.456;9.752;2023-04-23T01:37:56;13.70;99.90
22442;DHT22;11388;54.456;9.752;2023-04-23T01:40:22;13.60;99.90
22442;DHT22;11388;54.456;9.752;2023-04-23T01:42:48;13.60;99.90
22442;DHT22;11388;54.456;9.752;2023-04-23T01:45:14;13.40;99.90
22442;DHT22;11388;54.456;9.752;2023-04-23T01:47:42;13.40;99.90
22442;DHT22;11388;54.456;9.752;2023-04-23T01:50:08;13.40;99.90
22442;DHT22;11388;54.456;9.752;2023-04-23T01:52:34;13.20;99.90
22442;DHT22;11388;54.456;9.752;2023-04-23T01:55:00;13.20;99.90
22442;DHT22;11388;54.456;9.752;2023-04-23T01:57:26;13.10;99.90
22442;DHT22;11388;54.456;9.752;2023-04-23T02:00:19;13.00;99.90
22442;DHT22;11388;54.456;9.752;2023-04-23T02:02:45;13.00;99.90
22442;DHT22;11388;54.456;9.752;2023-04-23T02:05:16;12.90;99.90
22442;DHT22;11388;54.456;9.752;2023-04-23T02:07:47;12.90;99.90
22442;DHT22;11388;54.456;9.752;2023-04-23T02:10:13;12.70;99.90
22442;DHT22;11388;54.456;9.752;2023-04-23T02:12:39;12.60;99.90
22442;DHT22;11388;54.456;9.752;2023-04-23T02:15:05;12.60;99.90
22442;DHT22;11388;54.456;9.752;2023-04-23T02:17:32;12.70;99.90
22442;DHT22;11388;54.456;9.752;2023-04-23T02:19:57;12.80;99.90
22442;DHT22;11388;54.456;9.752;2023-04-23T02:22:23;12.60;99.90
22442;DHT22;11388;54.456;9.752;2023-04-23T02:24:51;12.50;99.90
22442;DHT22;11388;54.456;9.752;2023-04-23T02:27:17;12.50;99.90
22442;DHT22;11388;54.456;9.752;2023-04-23T02:29:44;12.40;99.90
22442;DHT22;11388;54.456;9.752;2023-04-23T02:32:10;12.40;99.90
22442;DHT22;11388;54.456;9.752;2023-04-23T02:34:36;12.20;99.90
22442;DHT22;11388;54.456;9.752;2023-04-23T02:37:02;12.20;99.90
22442;DHT22;11388;54.456;9.752;2023-04-23T02:39:29;12.20;99.90
22442;DHT22;11388;54.456;9.752;2023-04-23T02:41:55;12.20;99.90
22442;DHT22;11388;54.456;9.752;2023-04-23T02:44:22;12.20;99.90
22442;DHT22;11388;54.456;9.752;2023-04-23T02:46:48;12.20;99.90
22442;DHT22;11388;54.456;9.752;2023-04-23T02:49:14;12.20;99.90
22442;DHT22;11388;54.456;9.752;2023-04-23T02:51:40;12.30;99.90
22442;DHT22;11388;54.456;9.752;2023-04-23T02:54:06;12.30;99.90
22442;DHT22;11388;54.456;9.752;2023-04-23T02:56:32;12.30;99.90
22442;DHT22;11388;54.456;9.752;2023-04-23T02:58:57;12.30;99.90
22442;DHT22;11388;54.456;9.752;2023-04-23T03:01:23;12.30;99.90
22442;DHT22;11388;54.456;9.752;2023-04-23T03:03:49;12.20;99.90
22442;DHT22;11388;54.456;9.752;2023-04-23T03:06:15;12.30;99.90
22442;DHT22;11388;54.456;9.752;2023-04-23T03:08:40;12.30;99.90
22442;DHT22;11388;54.456;9.752;2023-04-23T03:11:06;12.20;99.90
22442;DHT22;11388;54.456;9.752;2023-04-23T03:13:32;12.20;99.90
22442;DHT22;11388;54.456;9.752;2023-04-23T03:15:58;12.20;99.90
22442;DHT22;11388;54.456;9.752;2023-04-23T03:18:24;12.00;99.90
22442;DHT22;11388;54.456;9.752;2023-04-23T03:20:49;12.00;99.90
22442;DHT22;11388;54.456;9.752;2023-04-23T03:23:15;12.10;99.90
22442;DHT22;11388;54.456;9.752;2023-04-23T03:25:41;12.10;99.90
22442;DHT22;11388;54.456;9.752;2023-04-23T03:28:07;12.10;99.90
22442;DHT22;11388;54.456;9.752;2023-04-23T03:30:32;11.90;99.90
22442;DHT22;11388;54.456;9.752;2023-04-23T03:32:58;11.90;99.90
22442;DHT22;11388;54.456;9.752;2023-04-23T03:35:24;12.00;99.90
22442;DHT22;11388;54.456;9.752;2023-04-23T03:37:50;11.90;99.90
22442;DHT22;11388;54.456;9.752;2023-04-23T03:40:18;12.00;99.90
22442;DHT22;11388;54.456;9.752;2023-04-23T03:42:44;11.90;99.90
22442;DHT22;11388;54.456;9.752;2023-04-23T03:45:10;11.90;99.90
22442;DHT22;11388;54.456;9.752;2023-04-23T03:47:38;11.90;99.90
22442;DHT22;11388;54.456;9.752;2023-04-23T03:50:05;11.90;99.90
22442;DHT22;11388;54.456;9.752;2023-04-23T03:52:31;11.90;99.90
22442;DHT22;11388;54.456;9.752;2023-04-23T03:54:56;12.00;99.90
22442;DHT22;11388;54.456;9.752;2023-04-23T03:57:22;12.00;99.90
22442;DHT22;11388;54.456;9.752;2023-04-23T03:59:48;12.00;99.90
22442;DHT22;11388;54.456;9.752;2023-04-23T04:02:14;12.00;99.90
22442;DHT22;11388;54.456;9.752;2023-04-23T04:04:39;12.00;99.90
22442;DHT22;11388;54.456;9.752;2023-04-23T04:07:07;12.00;99.90
22442;DHT22;11388;54.456;9.752;2023-04-23T04:09:33;12.00;99.90
22442;DHT22;11388;54.456;9.752;2023-04-23T04:11:58;11.90;99.90
22442;DHT22;11388;54.456;9.752;2023-04-23T04:14:24;11.90;99.90
22442;DHT22;11388;54.456;9.752;2023-04-23T04:16:49;11.80;99.90
22442;DHT22;11388;54.456;9.752;2023-04-23T04:19:15;11.80;99.90
22442;DHT22;11388;54.456;9.752;2023-04-23T04:21:41;11.80;99.90
22442;DHT22;11388;54.456;9.752;2023-04-23T04:24:07;11.70;99.90
22442;DHT22;11388;54.456;9.752;2023-04-23T04:26:33;11.60;99.90
22442;DHT22;11388;54.456;9.752;2023-04-23T04:29:02;11.50;99.90
22442;DHT22;11388;54.456;9.752;2023-04-23T04:31:27;11.50;99.90
22442;DHT22;11388;54.456;9.752;2023-04-23T04:33:54;11.50;99.90
22442;DHT22;11388;54.456;9.752;2023-04-23T04:36:20;11.50;99.90
22442;DHT22;11388;54.456;9.752;2023-04-23T04:38:46;11.40;99.90
22442;DHT22;11388;54.456;9.752;2023-04-23T04:41:12;11.30;99.90
22442;DHT22;11388;54.456;9.752;2023-04-23T04:43:39;11.20;99.90
22442;DHT22;11388;54.456;9.752;2023-04-23T04:46:04;11.20;99.90
22442;DHT22;11388;54.456;9.752;2023-04-23T04:48:30;11.20;99.90
22442;DHT22;11388;54.456;9.752;2023-04-23T04:50:56;11.20;99.90
22442;DHT22;11388;54.456;9.752;2023-04-23T04:53:22;11.10;99.90
22442;DHT22;11388;54.456;9.752;2023-04-23T04:55:47;11.20;99.90
22442;DHT22;11388;54.456;9.752;2023-04-23T04:58:13;11.20;99.90
22442;DHT22;11388;54.456;9.752;2023-04-23T05:00:39;11.20;99.90
22442;DHT22;11388;54.456;9.752;2023-04-23T05:03:05;11.10;99.90
22442;DHT22;11388;54.456;9.752;2023-04-23T05:05:32;11.10;99.90
22442;DHT22;11388;54.456;9.752;2023-04-23T05:07:58;11.10;99.90
22442;DHT22;11388;54.456;9.752;2023-04-23T05:10:26;10.90;99.90
22442;DHT22;11388;54.456;9.752;2023-04-23T05:12:52;10.90;99.90
22442;DHT22;11388;54.456;9.752;2023-04-23T05:15:18;10.90;99.90
22442;DHT22;11388;54.456;9.752;2023-04-23T05:17:44;10.80;99.90
22442;DHT22;11388;54.456;9.752;2023-04-23T05:20:10;10.80;99.90
22442;DHT22;11388;54.456;9.752;2023-04-23T05:22:40;10.90;99.90
22442;DHT22;11388;54.456;9.752;2023-04-23T05:25:07;10.80;99.90
22442;DHT22;11388;54.456;9.752;2023-04-23T05:27:33;10.70;99.90
22442;DHT22;11388;54.456;9.752;2023-04-23T05:30:04;10.80;99.90
22442;DHT22;11388;54.456;9.752;2023-04-23T05:32:30;10.80;99.90
22442;DHT22;11388;54.456;9.752;2023-04-23T05:34:56;10.80;99.90
22442;DHT22;11388;54.456;9.752;2023-04-23T05:37:22;10.70;99.90
22442;DHT22;11388;54.456;9.752;2023-04-23T05:39:48;10.80;99.90
22442;DHT22;11388;54.456;9.752;2023-04-23T05:42:13;10.80;99.90
22442;DHT22;11388;54.456;9.752;2023-04-23T05:44:39;10.80;99.90
22442;DHT22;11388;54.456;9.752;2023-04-23T05:47:06;10.90;99.90
22442;DHT22;11388;54.456;9.752;2023-04-23T05:49:33;10.90;99.90
22442;DHT22;11388;54.456;9.752;2023-04-23T05:52:00;10.90;99.90
22442;DHT22;11388;54.456;9.752;2023-04-23T05:54:27;10.90;99.90
22442;DHT22;11388;54.456;9.752;2023-04-23T05:56:53;10.90;99.90
22442;DHT22;11388;54.456;9.752;2023-04-23T05:59:18;11.00;99.90
22442;DHT22;11388;54.456;9.752;2023-04-23T06:01:45;10.90;99.90
22442;DHT22;11388;54.456;9.752;2023-04-23T06:04:12;10.90;99.90
22442;DHT22;11388;54.456;9.752;2023-04-23T06:06:38;10.90;99.90
22442;DHT22;11388;54.456;9.752;2023-04-23T06:09:03;10.80;99.90
22442;DHT22;11388;54.456;9.752;2023-04-23T06:11:30;10.80;99.90
22442;DHT22;11388;54.456;9.752;2023-04-23T06:14:03;10.90;99.90
22442;DHT22;11388;54.456;9.752;2023-04-23T06:16:29;10.90;99.90
22442;DHT22;11388;54.456;9.752;2023-04-23T06:18:55;11.00;99.90
22442;DHT22;11388;54.456;9.752;2023-04-23T06:21:24;11.00;99.90
22442;DHT22;11388;54.456;9.752;2023-04-23T06:23:51;11.10;99.90
22442;DHT22;11388;54.456;9.752;2023-04-23T06:26:20;11.10;99.90
22442;DHT22;11388;54.456;9.752;2023-04-23T06:28:46;11.10;99.90
22442;DHT22;11388;54.456;9.752;2023-04-23T06:31:12;11.10;99.90
22442;DHT22;11388;54.456;9.752;2023-04-23T06:33:38;11.30;99.90
22442;DHT22;11388;54.456;9.752;2023-04-23T06:36:04;11.40;99.90
22442;DHT22;11388;54.456;9.752;2023-04-23T06:38:30;11.40;99.90
22442;DHT22;11388;54.456;9.752;2023-04-23T06:40:56;11.60;99.90
22442;DHT22;11388;54.456;9.752;2023-04-23T06:43:23;11.70;99.90
22442;DHT22;11388;54.456;9.752;2023-04-23T06:45:49;11.90;99.90
22442;DHT22;11388;54.456;9.752;2023-04-23T06:48:14;12.00;99.90
22442;DHT22;11388;54.456;9.752;2023-04-23T06:50:41;12.00;99.90
22442;DHT22;11388;54.456;9.752;2023-04-23T06:53:07;12.10;99.90
22442;DHT22;11388;54.456;9.752;2023-04-23T06:55:33;12.00;99.90
22442;DHT22;11388;54.456;9.752;2023-04-23T06:57:58;12.00;99.90
22442;DHT22;11388;54.456;9.752;2023-04-23T07:00:24;12.10;99.90
22442;DHT22;11388;54.456;9.752;2023-04-23T07:02:50;12.20;99.90
22442;DHT22;11388;54.456;9.752;2023-04-23T07:05:16;12.00;99.90
22442;DHT22;11388;54.456;9.752;2023-04-23T07:07:42;12.10;99.90
22442;DHT22;11388;54.456;9.752;2023-04-23T07:10:09;12.00;99.90
22442;DHT22;11388;54.456;9.752;2023-04-23T07:12:38;12.10;99.90
22442;DHT22;11388;54.456;9.752;2023-04-23T07:15:05;12.10;99.90
22442;DHT22;11388;54.456;9.752;2023-04-23T07:17:31;12.00;99.90
22442;DHT22;11388;54.456;9.752;2023-04-23T07:19:57;11.80;99.90
22442;DHT22;11388;54.456;9.752;2023-04-23T07:22:24;11.90;99.90
22442;DHT22;11388;54.456;9.752;2023-04-23T07:24:50;11.80;99.90
22442;DHT22;11388;54.456;9.752;2023-04-23T07:27:16;11.90;99.90
22442;DHT22;11388;54.456;9.752;2023-04-23T07:29:42;12.00;99.90
22442;DHT22;11388;54.456;9.752;2023-04-23T07:32:07;12.00;99.90
22442;DHT22;11388;54.456;9.752;2023-04-23T07:34:33;12.10;99.90
22442;DHT22;11388;54.456;9.752;2023-04-23T07:37:01;11.90;99.90
22442;DHT22;11388;54.456;9.752;2023-04-23T07:39:27;12.00;99.90
22442;DHT22;11388;54.456;9.752;2023-04-23T07:41:53;12.00;99.90
22442;DHT22;11388;54.456;9.752;2023-04-23T07:44:18;12.00;99.90
22442;DHT22;11388;54.456;9.752;2023-04-23T07:46:44;11.90;99.90
22442;DHT22;11388;54.456;9.752;2023-04-23T07:49:10;11.90;99.90
22442;DHT22;11388;54.456;9.752;2023-04-23T07:51:35;11.90;99.90
22442;DHT22;11388;54.456;9.752;2023-04-23T07:54:01;11.80;99.90
22442;DHT22;11388;54.456;9.752;2023-04-23T07:56:27;11.90;99.90
22442;DHT22;11388;54.456;9.752;2023-04-23T07:58:52;12.10;99.90
22442;DHT22;11388;54.456;9.752;2023-04-23T08:01:20;12.20;99.90
22442;DHT22;11388;54.456;9.752;2023-04-23T08:03:46;12.30;99.90
22442;DHT22;11388;54.456;9.752;2023-04-23T08:06:12;12.30;99.90
22442;DHT22;11388;54.456;9.752;2023-04-23T08:08:37;12.40;99.90
22442;DHT22;11388;54.456;9.752;2023-04-23T08:11:06;12.40;99.90
22442;DHT22;11388;54.456;9.752;2023-04-23T08:13:32;12.50;99.90
22442;DHT22;11388;54.456;9.752;2023-04-23T08:15:58;12.70;99.90
22442;DHT22;11388;54.456;9.752;2023-04-23T08:18:24;13.00;99.90
22442;DHT22;11388;54.456;9.752;2023-04-23T08:20:49;13.20;99.90
22442;DHT22;11388;54.456;9.752;2023-04-23T08:23:16;13.10;99.90
22442;DHT22;11388;54.456;9.752;2023-04-23T08:25:44;13.20;99.90
22442;DHT22;11388;54.456;9.752;2023-04-23T08:28:10;13.20;99.90
22442;DHT22;11388;54.456;9.752;2023-04-23T08:30:36;13.20;99.90
22442;DHT22;11388;54.456;9.752;2023-04-23T08:33:04;13.30;99.90
22442;DHT22;11388;54.456;9.752;2023-04-23T08:35:30;13.20;99.90
22442;DHT22;11388;54.456;9.752;2023-04-23T08:37:55;13.20;99.90
22442;DHT22;11388;54.456;9.752;2023-04-23T08:40:21;13.10;99.90
22442;DHT22;11388;54.456;9.752;2023-04-23T08:45:22;13.10;99.90
22442;DHT22;11388;54.456;9.752;2023-04-23T08:47:48;13.00;99.90
22442;DHT22;11388;54.456;9.752;2023-04-23T08:50:18;13.00;99.90
22442;DHT22;11388;54.456;9.752;2023-04-23T08:52:55;13.00;99.90
22442;DHT22;11388;54.456;9.752;2023-04-23T08:55:22;13.00;99.90
22442;DHT22;11388;54.456;9.752;2023-04-23T08:57:48;13.10;99.90
22442;DHT22;11388;54.456;9.752;2023-04-23T09:00:20;13.20;99.90
22442;DHT22;11388;54.456;9.752;2023-04-23T09:02:47;13.10;99.90
22442;DHT22;11388;54.456;9.752;2023-04-23T09:05:13;13.10;99.90
22442;DHT22;11388;54.456;9.752;2023-04-23T09:07:40;13.20;99.90
22442;DHT22;11388;54.456;9.752;2023-04-23T09:10:07;13.40;99.90
22442;DHT22;11388;54.456;9.752;2023-04-23T09:12:39;13.50;99.90
22442;DHT22;11388;54.456;9.752;2023-04-23T09:15:06;13.60;99.90
22442;DHT22;11388;54.456;9.752;2023-04-23T09:17:38;13.70;99.90
22442;DHT22;11388;54.456;9.752;2023-04-23T09:20:05;13.60;99.90
22442;DHT22;11388;54.456;9.752;2023-04-23T09:22:48;13.60;99.90
22442;DHT22;11388;54.456;9.752;2023-04-23T09:25:16;13.60;99.90
22442;DHT22;11388;54.456;9.752;2023-04-23T09:27:42;13.70;99.90
22442;DHT22;11388;54.456;9.752;2023-04-23T09:30:09;13.80;99.90
22442;DHT22;11388;54.456;9.752;2023-04-23T09:32:38;13.80;99.90
22442;DHT22;11388;54.456;9.752;2023-04-23T09:35:05;13.70;99.90
22442;DHT22;11388;54.456;9.752;2023-04-23T09:37:33;13.60;99.90
22442;DHT22;11388;54.456;9.752;2023-04-23T09:40:03;13.80;99.90
22442;DHT22;11388;54.456;9.752;2023-04-23T09:42:34;13.90;99.90
22442;DHT22;11388;54.456;9.752;2023-04-23T09:45:06;14.00;99.90
22442;DHT22;11388;54.456;9.752;2023-04-23T09:47:41;13.90;99.90
22442;DHT22;11388;54.456;9.752;2023-04-23T09:50:12;14.30;99.90
22442;DHT22;11388;54.456;9.752;2023-04-23T09:52:38;14.30;99.90
22442;DHT22;11388;54.456;9.752;2023-04-23T09:55:04;14.20;99.90
22442;DHT22;11388;54.456;9.752;2023-04-23T09:57:37;14.20;99.90
22442;DHT22;11388;54.456;9.752;2023-04-23T10:00:13;14.50;99.90
22442;DHT22;11388;54.456;9.752;2023-04-23T10:02:45;14.50;99.90
22442;DHT22;11388;54.456;9.752;2023-04-23T10:05:19;14.60;99.90
22442;DHT22;11388;54.456;9.752;2023-04-23T10:07:46;14.80;99.90
22442;DHT22;11388;54.456;9.752;2023-04-23T10:10:17;14.60;99.90
22442;DHT22;11388;54.456;9.752;2023-04-23T10:12:43;14.40;99.90
22442;DHT22;11388;54.456;9.752;2023-04-23T10:15:10;14.40;99.90
22442;DHT22;11388;54.456;9.752;2023-04-23T10:17:37;14.60;99.90
22442;DHT22;11388;54.456;9.752;2023-04-23T10:20:04;14.60;99.90
22442;DHT22;11388;54.456;9.752;2023-04-23T10:22:33;14.50;99.90
22442;DHT22;11388;54.456;9.752;2023-04-23T10:25:05;14.50;99.90
22442;DHT22;11388;54.456;9.752;2023-04-23T10:27:40;14.40;99.90
22442;DHT22;11388;54.456;9.752;2023-04-23T10:30:08;14.40;99.90
22442;DHT22;11388;54.456;9.752;2023-04-23T10:32:34;14.50;99.90
22442;DHT22;11388;54.456;9.752;2023-04-23T10:35:00;14.40;99.90
22442;DHT22;11388;54.456;9.752;2023-04-23T10:37:27;14.50;99.90
22442;DHT22;11388;54.456;9.752;2023-04-23T10:39:55;14.70;99.90
22442;DHT22;11388;54.456;9.752;2023-04-23T10:42:23;14.90;99.90
22442;DHT22;11388;54.456;9.752;2023-04-23T10:44:49;14.80;99.90
22442;DHT22;11388;54.456;9.752;2023-04-23T10:47:15;14.90;99.90
22442;DHT22;11388;54.456;9.752;2023-04-23T10:49:42;14.90;99.90
22442;DHT22;11388;54.456;9.752;2023-04-23T10:52:11;14.90;99.90
22442;DHT22;11388;54.456;9.752;2023-04-23T10:54:40;15.00;99.90
22442;DHT22;11388;54.456;9.752;2023-04-23T10:57:07;15.20;99.90
22442;DHT22;11388;54.456;9.752;2023-04-23T10:59:35;15.30;99.90
22442;DHT22;11388;54.456;9.752;2023-04-23T11:05:34;15.60;99.90
22442;DHT22;11388;54.456;9.752;2023-04-23T11:08:10;15.60;99.90
22442;DHT22;11388;54.456;9.752;2023-04-23T11:11:11;15.50;99.90
22442;DHT22;11388;54.456;9.752;2023-04-23T11:17:04;15.70;99.90
22442;DHT22;11388;54.456;9.752;2023-04-23T11:19:39;15.70;99.90
22442;DHT22;11388;54.456;9.752;2023-04-23T11:25:25;15.80;99.90
22442;DHT22;11388;54.456;9.752;2023-04-23T11:27:57;16.00;99.90
22442;DHT22;11388;54.456;9.752;2023-04-23T11:30:25;16.10;99.90
22442;DHT22;11388;54.456;9.752;2023-04-23T11:32:53;16.20;99.90
22442;DHT22;11388;54.456;9.752;2023-04-23T11:35:20;16.30;99.90
22442;DHT22;11388;54.456;9.752;2023-04-23T11:37:47;16.60;99.90
22442;DHT22;11388;54.456;9.752;2023-04-23T11:40:15;16.60;99.90
22442;DHT22;11388;54.456;9.752;2023-04-23T11:42:48;16.70;99.90
22442;DHT22;11388;54.456;9.752;2023-04-23T11:45:16;16.70;99.90
22442;DHT22;11388;54.456;9.752;2023-04-23T11:47:43;16.90;99.90
22442;DHT22;11388;54.456;9.752;2023-04-23T11:50:09;16.90;99.90
22442;DHT22;11388;54.456;9.752;2023-04-23T11:52:36;17.00;99.90
22442;DHT22;11388;54.456;9.752;2023-04-23T11:55:05;17.20;99.90
22442;DHT22;11388;54.456;9.752;2023-04-23T11:57:35;17.40;99.90
22442;DHT22;11388;54.456;9.752;2023-04-23T12:03:05;17.70;99.90
22442;DHT22;11388;54.456;9.752;2023-04-23T12:05:39;17.80;99.90
22442;DHT22;11388;54.456;9.752;2023-04-23T12:08:14;18.10;99.90
22442;DHT22;11388;54.456;9.752;2023-04-23T12:10:51;18.20;99.90
22442;DHT22;11388;54.456;9.752;2023-04-23T12:13:24;18.30;99.90
22442;DHT22;11388;54.456;9.752;2023-04-23T12:15:53;18.60;99.90
22442;DHT22;11388;54.456;9.752;2023-04-23T12:18:30;19.30;99.90
22442;DHT22;11388;54.456;9.752;2023-04-23T12:21:04;20.00;99.90
22442;DHT22;11388;54.456;9.752;2023-04-23T12:23:30;20.30;99.90
22442;DHT22;11388;54.456;9.752;2023-04-23T12:25:57;21.50;99.90
22442;DHT22;11388;54.456;9.752;2023-04-23T12:28:24;21.40;99.90
22442;DHT22;11388;54.456;9.752;2023-04-23T12:30:50;20.70;99.90
22442;DHT22;11388;54.456;9.752;2023-04-23T12:33:16;20.30;99.90
22442;DHT22;11388;54.456;9.752;2023-04-23T12:35:50;20.00;99.90
22442;DHT22;11388;54.456;9.752;2023-04-23T12:38:26;20.20;99.90
22442;DHT22;11388;54.456;9.752;2023-04-23T12:40:54;23.10;99.90
22442;DHT22;11388;54.456;9.752;2023-04-23T12:43:21;25.10;96.60
22442;DHT22;11388;54.456;9.752;2023-04-23T12:45:49;25.40;94.10
22442;DHT22;11388;54.456;9.752;2023-04-23T12:48:16;23.90;92.10
22442;DHT22;11388;54.456;9.752;2023-04-23T12:50:43;23.00;93.50
22442;DHT22;11388;54.456;9.752;2023-04-23T12:53:09;22.50;94.20
22442;DHT22;11388;54.456;9.752;2023-04-23T12:55:34;25.00;95.80
22442;DHT22;11388;54.456;9.752;2023-04-23T12:58:00;26.10;90.30
22442;DHT22;11388;54.456;9.752;2023-04-23T13:00:26;25.10;90.40
22442;DHT22;11388;54.456;9.752;2023-04-23T13:02:52;26.00;91.40
22442;DHT22;11388;54.456;9.752;2023-04-23T13:05:17;24.70;89.80
22442;DHT22;11388;54.456;9.752;2023-04-23T13:07:43;26.30;93.20
22442;DHT22;11388;54.456;9.752;2023-04-23T13:10:09;26.50;86.30
22442;DHT22;11388;54.456;9.752;2023-04-23T13:12:35;24.90;86.60
22442;DHT22;11388;54.456;9.752;2023-04-23T13:15:01;23.90;90.50
22442;DHT22;11388;54.456;9.752;2023-04-23T13:17:27;23.10;90.80
22442;DHT22;11388;54.456;9.752;2023-04-23T13:20:01;22.20;91.70
22442;DHT22;11388;54.456;9.752;2023-04-23T13:22:40;22.00;93.40
22442;DHT22;11388;54.456;9.752;2023-04-23T13:25:06;21.90;94.50
22442;DHT22;11388;54.456;9.752;2023-04-23T13:27:32;21.50;93.70
22442;DHT22;11388;54.456;9.752;2023-04-23T13:29:57;21.20;94.40
22442;DHT22;11388;54.456;9.752;2023-04-23T13:32:23;21.10;95.10
22442;DHT22;11388;54.456;9.752;2023-04-23T13:34:51;21.00;94.90
22442;DHT22;11388;54.456;9.752;2023-04-23T13:37:17;20.60;95.40
22442;DHT22;11388;54.456;9.752;2023-04-23T13:39:42;20.60;95.90
22442;DHT22;11388;54.456;9.752;2023-04-23T13:42:10;20.50;95.80
22442;DHT22;11388;54.456;9.752;2023-04-23T13:44:39;20.80;96.30
22442;DHT22;11388;54.456;9.752;2023-04-23T13:47:05;20.90;95.70
22442;DHT22;11388;54.456;9.752;2023-04-23T13:49:30;21.60;95.30
22442;DHT22;11388;54.456;9.752;2023-04-23T13:51:56;21.90;95.90
22442;DHT22;11388;54.456;9.752;2023-04-23T13:54:25;23.10;94.30
22442;DHT22;11388;54.456;9.752;2023-04-23T13:56:54;23.10;93.80
22442;DHT22;11388;54.456;9.752;2023-04-23T13:59:24;22.90;92.60
22442;DHT22;11388;54.456;9.752;2023-04-23T14:01:59;22.90;93.40
22442;DHT22;11388;54.456;9.752;2023-04-23T14:04:25;21.90;93.10
22442;DHT22;11388;54.456;9.752;2023-04-23T14:06:51;21.70;95.00
22442;DHT22;11388;54.456;9.752;2023-04-23T14:09:44;23.10;94.00
22442;DHT22;11388;54.456;9.752;2023-04-23T14:12:21;24.90;91.40
22442;DHT22;11388;54.456;9.752;2023-04-23T14:14:49;24.40;91.20
22442;DHT22;11388;54.456;9.752;2023-04-23T14:17:17;24.80;91.30
22442;DHT22;11388;54.456;9.752;2023-04-23T14:19:42;25.40;90.90
22442;DHT22;11388;54.456;9.752;2023-04-23T14:22:08;25.00;90.40
22442;DHT22;11388;54.456;9.752;2023-04-23T14:24:50;23.90;90.50
22442;DHT22;11388;54.456;9.752;2023-04-23T14:27:15;23.30;92.00
22442;DHT22;11388;54.456;9.752;2023-04-23T14:29:56;22.60;92.60
22442;DHT22;11388;54.456;9.752;2023-04-23T14:32:27;22.00;93.70
22442;DHT22;11388;54.456;9.752;2023-04-23T14:34:56;21.70;94.10
22442;DHT22;11388;54.456;9.752;2023-04-23T14:37:22;20.80;94.90
22442;DHT22;11388;54.456;9.752;2023-04-23T14:39:47;20.50;95.90
22442;DHT22;11388;54.456;9.752;2023-04-23T14:42:17;20.30;96.30
22442;DHT22;11388;54.456;9.752;2023-04-23T14:44:43;20.10;97.00
22442;DHT22;11388;54.456;9.752;2023-04-23T14:47:08;19.90;97.20
22442;DHT22;11388;54.456;9.752;2023-04-23T14:49:40;19.80;98.30
22442;DHT22;11388;54.456;9.752;2023-04-23T14:52:06;19.70;98.10
22442;DHT22;11388;54.456;9.752;2023-04-23T14:54:32;19.90;98.50
22442;DHT22;11388;54.456;9.752;2023-04-23T14:56:58;20.40;99.00
22442;DHT22;11388;54.456;9.752;2023-04-23T14:59:23;21.10;98.40
22442;DHT22;11388;54.456;9.752;2023-04-23T15:01:49;21.20;97.60
22442;DHT22;11388;54.456;9.752;2023-04-23T15:04:15;21.50;97.00
22442;DHT22;11388;54.456;9.752;2023-04-23T15:06:47;21.60;96.10
22442;DHT22;11388;54.456;9.752;2023-04-23T15:09:12;21.80;96.70
22442;DHT22;11388;54.456;9.752;2023-04-23T15:11:39;21.70;95.80
22442;DHT22;11388;54.456;9.752;2023-04-23T15:14:30;21.50;95.40
22442;DHT22;11388;54.456;9.752;2023-04-23T15:16:56;20.90;96.60
22442;DHT22;11388;54.456;9.752;2023-04-23T15:19:22;20.80;96.40
22442;DHT22;11388;54.456;9.752;2023-04-23T15:21:48;20.90;96.70
22442;DHT22;11388;54.456;9.752;2023-04-23T15:24:14;21.10;97.20
22442;DHT22;11388;54.456;9.752;2023-04-23T15:26:40;21.10;96.90
22442;DHT22;11388;54.456;9.752;2023-04-23T15:29:06;20.80;96.90
22442;DHT22;11388;54.456;9.752;2023-04-23T15:31:35;21.20;97.20
22442;DHT22;11388;54.456;9.752;2023-04-23T15:34:01;21.50;97.10
22442;DHT22;11388;54.456;9.752;2023-04-23T15:36:30;21.80;96.60
22442;DHT22;11388;54.456;9.752;2023-04-23T15:38:57;21.70;96.70
22442;DHT22;11388;54.456;9.752;2023-04-23T15:41:23;21.80;96.30
22442;DHT22;11388;54.456;9.752;2023-04-23T15:43:57;21.90;95.70
22442;DHT22;11388;54.456;9.752;2023-04-23T15:46:22;21.90;95.60